Impacts METAR Board
IDs:

KSEP - Stephenville/Clark F, TX, US

Updated at: 0600 UTC 19 Aug 2019
Potential Impact None Slight Moderate High
Time 18/18Z 18/19Z 18/20Z 18/21Z 18/22Z 18/23Z 19/00Z 19/01Z 19/02Z 19/03Z 19/04Z 19/05Z 19/06Z
Temp95 97 99 100 100 99 97 93 90 88 86 83 82
Dewpt64 63 62 62 59 60 60 60 63 63 63 63 64
Altim29.94 29.93 29.91 29.90 29.89 29.88 29.87 29.87 29.88 29.91 29.94 29.95 29.96
VIS10 10 10 10 10 10 10 10 10 10 10 10 10
CIG-- -- -- -- -- -- -- -- -- -- -- -- --
CoverCLRCLRCLRCLRCLRCLRCLRCLRCLRCLRCLRCLRCLR
FltCatVFRVFRVFRVFRVFRVFRVFRVFRVFRVFRVFRVFRVFR
WX--------------------------
WDir160140150180130160140140140150150150150
WSpd11 10 10 7 8 7 8 7 7 6 5 4 5
WGst16 14 14 -- -- -- -- -- -- -- -- -- --
Raw hourly METARs
KSEP 181755Z AUTO 16011G16KT 10SM CLR 35/18 A2994 RMK AO2 T03510175 10351 20250
KSEP 181855Z AUTO 14010G14KT 10SM CLR 36/17 A2993 RMK AO2 T03620170
KSEP 181955Z AUTO 15010G14KT 10SM CLR 37/17 A2991 RMK AO2 T03720168
KSEP 182055Z AUTO 18007KT 10SM CLR 38/17 A2990 RMK AO2 T03780165
KSEP 182155Z AUTO 13008KT 10SM CLR 38/15 A2989 RMK AO2 T03760152
KSEP 182255Z AUTO 16007KT 10SM CLR 37/16 A2988 RMK AO2 T03720158
KSEP 182355Z AUTO 14008KT 10SM CLR 36/16 A2987 RMK AO2 T03600155 10378 20351
KSEP 190055Z AUTO 14007KT 10SM CLR 34/16 A2987 RMK AO2 T03370157
KSEP 190155Z AUTO 14007KT 10SM CLR 32/17 A2988 RMK AO2 T03200170
KSEP 190255Z AUTO 15006KT 10SM CLR 31/17 A2991 RMK AO2 T03110172
KSEP 190355Z AUTO 15005KT 10SM CLR 30/17 A2994 RMK AO2 T02980170
KSEP 190455Z AUTO 15004KT 10SM CLR 29/17 A2995 RMK AO2 T02860171
KSEP 190555Z AUTO 15005KT 10SM CLR 28/18 A2996 RMK AO2 T02790180 10360 20279 403780250



Page loaded:  06:14 UTC  |   11:14 PM Pacific  |   12:14 AM Mountain  |   01:14 AM Central  |   02:14 AM Eastern

 

ADVISORIES

FORECASTS

FORECASTS

OBSERVATIONS

USER TOOLS

ABOUT US